createdAt,value
2022-08-23T00:02:02.613Z,99296.52
2022-08-23T00:04:39.651Z,99296.29
2022-08-23T00:07:24.053Z,99300.09
2022-08-23T00:09:51.750Z,99300.48
2022-08-23T00:12:22.324Z,99299.42
2022-08-23T00:14:53.943Z,99303.59
2022-08-23T00:17:34.508Z,99296.29
2022-08-23T00:20:08.785Z,99293.26
2022-08-23T00:22:39.622Z,99291.36
2022-08-23T00:25:10.165Z,99291.75
2022-08-23T00:27:38.018Z,99291.12
2022-08-23T00:30:10.302Z,99298.42
2022-08-23T00:32:39.382Z,99288.85
2022-08-23T00:35:10.871Z,99291.90
2022-08-23T00:37:39.317Z,99291.98
2022-08-23T00:40:09.776Z,99292.81
2022-08-23T00:43:01.264Z,99295.37
2022-08-23T00:46:04.210Z,99298.05
2022-08-23T00:48:34.690Z,99299.46
2022-08-23T00:51:27.729Z,99298.76
2022-08-23T00:54:01.333Z,99293.33
2022-08-23T00:56:33.784Z,99292.49
2022-08-23T00:59:01.362Z,99294.52
2022-08-23T01:01:29.058Z,99299.02
2022-08-23T01:04:04.270Z,99299.83
2022-08-23T01:06:44.446Z,99302.95
2022-08-23T01:09:16.576Z,99314.20
2022-08-23T01:12:15.579Z,99310.00
2022-08-23T01:15:02.358Z,99312.17
2022-08-23T01:17:43.269Z,99309.20
2022-08-23T01:20:17.270Z,99310.15
2022-08-23T01:23:06.954Z,99308.91
2022-08-23T01:25:34.547Z,99316.56
2022-08-23T01:28:02.032Z,99315.30
2022-08-23T01:30:32.960Z,99313.33
2022-08-23T01:33:05.341Z,99311.19
2022-08-23T01:35:41.025Z,99310.17
2022-08-23T01:38:09.804Z,99311.59
2022-08-23T01:40:37.978Z,99310.81
2022-08-23T01:43:06.673Z,99312.92
2022-08-23T01:45:35.357Z,99311.66
2022-08-23T01:48:03.524Z,99311.08
2022-08-23T01:50:31.771Z,99312.34
2022-08-23T01:53:00.273Z,99312.89
2022-08-23T01:55:29.288Z,99312.56
2022-08-23T01:58:00.009Z,99316.35
2022-08-23T02:00:33.583Z,99318.05
2022-08-23T02:03:02.322Z,99321.30
2022-08-23T02:05:31.299Z,99320.40
2022-08-23T02:08:18.821Z,99314.43
2022-08-23T02:10:46.693Z,99311.92
2022-08-23T02:13:15.103Z,99315.85
2022-08-23T02:15:44.370Z,99324.09
2022-08-23T02:18:12.341Z,99320.97
2022-08-23T02:20:49.268Z,99325.09
2022-08-23T02:23:18.200Z,99329.09
2022-08-23T02:25:45.349Z,99330.74
2022-08-23T02:28:12.744Z,99335.60
2022-08-23T02:30:40.110Z,99336.63
2022-08-23T02:33:08.958Z,99333.84
2022-08-23T02:35:38.361Z,99335.67
2022-08-23T02:38:08.577Z,99333.14
2022-08-23T02:40:37.450Z,99334.55
2022-08-23T02:43:06.976Z,99334.89
2022-08-23T02:45:36.572Z,99337.54
2022-08-23T02:48:07.691Z,99343.02
2022-08-23T02:50:42.353Z,99347.09
2022-08-23T02:53:09.629Z,99350.73
2022-08-23T02:55:38.108Z,99353.83
2022-08-23T02:58:05.548Z,99356.40
2022-08-23T03:00:32.764Z,99355.73
2022-08-23T03:03:00.050Z,99354.27
2022-08-23T03:05:27.501Z,99357.20
2022-08-23T03:07:55.254Z,99359.39
2022-08-23T03:10:22.922Z,99360.04
2022-08-23T03:12:54.994Z,99364.98
2022-08-23T03:15:22.806Z,99368.89
2022-08-23T03:17:50.623Z,99373.05
2022-08-23T03:20:18.796Z,99373.98
2022-08-23T03:22:48.369Z,99375.97
2022-08-23T03:25:22.801Z,99375.52
2022-08-23T03:28:32.874Z,99381.68
2022-08-23T03:31:00.137Z,99385.35
2022-08-23T03:33:27.482Z,99392.52
2022-08-23T03:35:59.995Z,99394.94
2022-08-23T03:38:27.515Z,99394.70
2022-08-23T03:40:54.875Z,99398.19
2022-08-23T03:43:24.264Z,99398.55
2022-08-23T03:45:51.828Z,99407.27
2022-08-23T03:48:20.104Z,99407.98
2022-08-23T03:50:47.965Z,99405.97
2022-08-23T03:53:15.973Z,99400.80
2022-08-23T03:55:44.540Z,99400.95
2022-08-23T03:58:14.855Z,99398.80
2022-08-23T04:00:42.719Z,99404.83
2022-08-23T04:03:10.281Z,99400.98
2022-08-23T04:05:51.867Z,99404.90
2022-08-23T04:08:31.851Z,99411.04
2022-08-23T04:11:02.094Z,99415.15
2022-08-23T04:13:30.245Z,99416.04
2022-08-23T04:15:58.614Z,99418.29
2022-08-23T04:18:26.175Z,99419.52
2022-08-23T04:20:53.604Z,99420.33
2022-08-23T04:23:22.213Z,99418.03
2022-08-23T04:25:53.536Z,99418.07
2022-08-23T04:28:22.159Z,99412.70
2022-08-23T04:30:51.140Z,99410.88
2022-08-23T04:33:19.182Z,99414.58
2022-08-23T04:35:48.718Z,99416.90
2022-08-23T04:38:24.913Z,99421.35
2022-08-23T04:41:17.514Z,99423.34
2022-08-23T04:43:46.572Z,99420.09
2022-08-23T04:46:15.174Z,99425.02
2022-08-23T04:48:44.625Z,99425.24
2022-08-23T04:51:13.067Z,99430.86
2022-08-23T04:53:41.594Z,99433.00
2022-08-23T04:56:51.845Z,99439.80
2022-08-23T04:59:20.474Z,99447.82
2022-08-23T05:01:50.340Z,99445.23
2022-08-23T05:04:17.954Z,99446.85
2022-08-23T05:06:45.588Z,99452.84
2022-08-23T05:09:17.119Z,99455.36
2022-08-23T05:11:49.068Z,99456.92
2022-08-23T05:14:17.042Z,99455.80
2022-08-23T05:16:45.003Z,99458.93
2022-08-23T05:19:12.457Z,99462.62
2022-08-23T05:21:44.118Z,99463.89
2022-08-23T05:24:13.761Z,99463.07
2022-08-23T05:26:42.889Z,99465.10
2022-08-23T05:29:10.849Z,99465.27
2022-08-23T05:31:46.274Z,99466.17
2022-08-23T05:34:15.798Z,99465.14
2022-08-23T05:36:55.729Z,99469.99
2022-08-23T05:39:36.163Z,99465.20
2022-08-23T05:42:09.214Z,99464.49
2022-08-23T05:44:37.353Z,99467.25
2022-08-23T05:47:10.512Z,99467.74
2022-08-23T05:50:17.169Z,99476.77
2022-08-23T05:52:49.023Z,99468.29
2022-08-23T05:55:18.765Z,99467.35
2022-08-23T05:57:57.267Z,99475.13
2022-08-23T06:00:28.392Z,99477.42
2022-08-23T06:03:08.648Z,99473.17
2022-08-23T06:05:41.378Z,99473.66
2022-08-23T06:08:08.621Z,99473.02
2022-08-23T06:10:40.497Z,99479.48
2022-08-23T06:13:21.572Z,99483.34
2022-08-23T06:15:49.253Z,99486.86
2022-08-23T06:18:16.397Z,99487.41
2022-08-23T06:20:43.742Z,99483.79
2022-08-23T06:23:17.193Z,99490.06
2022-08-23T06:25:45.017Z,99488.33
2022-08-23T06:28:15.119Z,99495.89
2022-08-23T06:30:43.044Z,99498.59
2022-08-23T06:33:26.796Z,99497.60
2022-08-23T06:36:50.007Z,99497.84
2022-08-23T06:39:37.633Z,99503.86
2022-08-23T06:42:45.193Z,99507.61
2022-08-23T06:45:13.946Z,99508.89
2022-08-23T06:47:42.726Z,99505.46
2022-08-23T06:50:10.913Z,99506.45
2022-08-23T06:52:56.886Z,99509.16
2022-08-23T06:55:35.980Z,99504.11
2022-08-23T06:58:27.730Z,99513.40
2022-08-23T07:01:54.709Z,99513.11
2022-08-23T07:04:35.126Z,99509.40
2022-08-23T07:07:15.860Z,99509.96
2022-08-23T07:09:43.482Z,99511.62
2022-08-23T07:12:11.446Z,99508.09
2022-08-23T07:14:42.029Z,99510.19
2022-08-23T07:17:09.294Z,99507.35
2022-08-23T07:19:36.521Z,99507.11
2022-08-23T07:22:05.766Z,99499.16
2022-08-23T07:24:33.918Z,99501.28
2022-08-23T07:27:09.136Z,99498.85
2022-08-23T07:29:45.716Z,99503.49
2022-08-23T07:32:13.315Z,99500.56
2022-08-23T07:34:40.489Z,99503.42
2022-08-23T07:37:11.226Z,99500.17
2022-08-23T07:39:44.146Z,99512.09
2022-08-23T07:42:22.848Z,99520.73
2022-08-23T07:44:53.296Z,99524.84
2022-08-23T07:47:22.542Z,99526.78
2022-08-23T07:49:50.593Z,99521.48
2022-08-23T07:52:18.058Z,99523.89
2022-08-23T07:54:49.465Z,99521.00
2022-08-23T07:57:37.825Z,99521.04
2022-08-23T08:00:11.574Z,99520.25
2022-08-23T08:02:53.000Z,99523.16
2022-08-23T08:05:25.801Z,99525.01
2022-08-23T08:07:53.277Z,99527.91
2022-08-23T08:10:20.617Z,99530.23
2022-08-23T08:12:48.162Z,99529.63
2022-08-23T08:15:19.209Z,99529.36
2022-08-23T08:17:51.085Z,99524.86
2022-08-23T08:20:19.800Z,99519.56
2022-08-23T08:23:05.993Z,99522.30
2022-08-23T08:26:08.536Z,99522.96
2022-08-23T08:28:37.460Z,99528.30
2022-08-23T08:31:09.083Z,99525.60
2022-08-23T08:33:36.722Z,99525.42
2022-08-23T08:36:06.343Z,99526.98
2022-08-23T08:38:50.292Z,99528.63
2022-08-23T08:41:28.923Z,99528.85
2022-08-23T08:44:23.630Z,99521.77
2022-08-23T08:46:58.835Z,99527.23
2022-08-23T08:50:14.125Z,99521.89
2022-08-23T08:53:13.117Z,99522.17
2022-08-23T08:56:39.493Z,99525.16
2022-08-23T08:59:38.710Z,99526.11
2022-08-23T09:02:16.931Z,99523.40
2022-08-23T09:04:57.886Z,99521.57
2022-08-23T09:07:56.642Z,99522.11
2022-08-23T09:10:35.611Z,99520.05
2022-08-23T09:13:53.168Z,99525.27
2022-08-23T09:16:32.413Z,99522.07
2022-08-23T09:19:02.927Z,99521.37
2022-08-23T09:21:46.934Z,99521.77
2022-08-23T09:24:14.730Z,99520.46
2022-08-23T09:26:53.696Z,99520.53
2022-08-23T09:29:27.214Z,99521.55
2022-08-23T09:32:01.914Z,99516.08
2022-08-23T09:34:30.438Z,99515.71
2022-08-23T09:37:22.487Z,99520.44
2022-08-23T09:40:12.408Z,99521.91
2022-08-23T09:42:41.774Z,99522.02
2022-08-23T09:45:37.159Z,99522.23
2022-08-23T09:48:11.569Z,99523.42
2022-08-23T09:50:54.351Z,99518.37
2022-08-23T09:53:29.449Z,99518.06
2022-08-23T09:56:11.265Z,99510.70
2022-08-23T09:58:53.293Z,99512.19
2022-08-23T10:01:38.892Z,99510.05
2022-08-23T10:04:11.792Z,99516.05
2022-08-23T10:06:41.550Z,99516.06
2022-08-23T10:09:21.224Z,99514.95
2022-08-23T10:11:49.216Z,99514.50
2022-08-23T10:14:20.944Z,99515.09
2022-08-23T10:17:33.764Z,99513.80
2022-08-23T10:20:37.545Z,99511.15
2022-08-23T10:23:50.390Z,99512.20
2022-08-23T10:26:34.757Z,99513.64
2022-08-23T10:29:29.793Z,99517.04
2022-08-23T10:32:15.252Z,99520.23
2022-08-23T10:35:26.166Z,99513.92
2022-08-23T10:38:30.206Z,99517.48
2022-08-23T10:41:32.544Z,99515.89
2022-08-23T10:45:05.605Z,99516.95
2022-08-23T10:47:43.983Z,99513.08
2022-08-23T10:50:20.400Z,99517.98
2022-08-23T10:53:10.456Z,99525.21
2022-08-23T10:56:02.414Z,99522.46
2022-08-23T10:59:00.616Z,99519.52
2022-08-23T11:01:50.701Z,99519.83
2022-08-23T11:04:43.096Z,99517.69
2022-08-23T11:07:25.494Z,99512.69
2022-08-23T11:10:16.298Z,99510.48
2022-08-23T11:13:10.645Z,99510.55
2022-08-23T11:15:58.822Z,99510.48
2022-08-23T11:18:48.485Z,99507.92
2022-08-23T11:21:33.054Z,99506.88
2022-08-23T11:24:03.784Z,99509.30
2022-08-23T11:26:37.625Z,99510.35
2022-08-23T11:29:10.324Z,99509.40
2022-08-23T11:31:58.128Z,99506.59
2022-08-23T11:34:57.384Z,99504.14
2022-08-23T11:37:30.677Z,99506.55
2022-08-23T11:40:07.735Z,99508.77
2022-08-23T11:42:38.420Z,99511.50
2022-08-23T11:45:27.024Z,99507.97
2022-08-23T11:48:43.492Z,99507.16
2022-08-23T11:52:00.496Z,99503.21
2022-08-23T11:55:17.052Z,99502.42
2022-08-23T11:58:23.804Z,99501.48
2022-08-23T12:00:55.129Z,99499.68
2022-08-23T12:03:33.260Z,99496.41
2022-08-23T12:06:35.346Z,99497.27
2022-08-23T12:09:15.179Z,99496.13
2022-08-23T12:11:57.108Z,99494.46
2022-08-23T12:14:30.401Z,99485.25
2022-08-23T12:17:29.752Z,99484.99
2022-08-23T12:20:16.523Z,99485.85
2022-08-23T12:22:59.645Z,99479.06
2022-08-23T12:25:29.955Z,99485.71
2022-08-23T12:28:07.132Z,99489.39
2022-08-23T12:31:07.825Z,99484.05
2022-08-23T12:34:19.649Z,99480.36
2022-08-23T12:36:59.192Z,99477.69
2022-08-23T12:39:40.719Z,99473.97
2022-08-23T12:42:17.824Z,99471.47
2022-08-23T12:44:57.522Z,99475.94
2022-08-23T12:47:24.882Z,99472.84
2022-08-23T12:50:06.005Z,99474.48
2022-08-23T12:52:36.801Z,99473.69
2022-08-23T12:55:16.377Z,99472.20
2022-08-23T12:57:53.905Z,99468.97
2022-08-23T13:00:33.918Z,99473.23
2022-08-23T13:03:14.097Z,99474.07
2022-08-23T13:05:47.990Z,99473.27
2022-08-23T13:08:34.198Z,99469.64
2022-08-23T13:11:08.058Z,99469.25
2022-08-23T13:13:40.884Z,99462.88
2022-08-23T13:16:44.194Z,99462.80
2022-08-23T13:19:27.496Z,99462.25
2022-08-23T13:22:23.188Z,99462.66
2022-08-23T13:25:29.130Z,99462.25
2022-08-23T13:28:20.358Z,99462.02
2022-08-23T13:31:07.570Z,99463.63
2022-08-23T13:33:35.320Z,99463.90
2022-08-23T13:36:17.020Z,99460.66
2022-08-23T13:38:44.985Z,99459.64
2022-08-23T13:41:38.801Z,99459.05
2022-08-23T13:44:08.582Z,99460.78
2022-08-23T13:46:44.841Z,99460.33
2022-08-23T13:49:28.049Z,99456.32
2022-08-23T13:52:24.581Z,99454.08
2022-08-23T13:54:51.354Z,99452.23
2022-08-23T13:57:21.722Z,99455.48
2022-08-23T13:59:55.543Z,99457.98
2022-08-23T14:02:24.927Z,99456.85
2022-08-23T14:04:52.826Z,99457.95
2022-08-23T14:07:20.865Z,99448.52
2022-08-23T14:09:51.992Z,99451.16
2022-08-23T14:12:25.405Z,99453.02
2022-08-23T14:15:00.281Z,99451.58
2022-08-23T14:17:28.182Z,99441.14
2022-08-23T14:20:32.987Z,99440.30
2022-08-23T14:22:43.484Z,99441.67
2022-08-23T14:25:12.292Z,99440.44
2022-08-23T14:27:43.140Z,99443.28
2022-08-23T14:30:36.266Z,99441.35
2022-08-23T14:33:06.308Z,99444.48
2022-08-23T14:35:33.755Z,99445.77
2022-08-23T14:38:04.010Z,99445.02
2022-08-23T14:40:35.851Z,99445.08
2022-08-23T14:43:05.368Z,99449.85
2022-08-23T14:45:33.003Z,99451.35
2022-08-23T14:48:01.659Z,99445.97
2022-08-23T14:50:29.372Z,99445.12
2022-08-23T14:52:57.490Z,99444.20
2022-08-23T14:55:25.283Z,99441.11
2022-08-23T14:57:53.136Z,99440.58
2022-08-23T15:00:20.719Z,99440.78
2022-08-23T15:02:49.700Z,99439.97
2022-08-23T15:05:17.863Z,99439.04
2022-08-23T15:07:45.639Z,99440.21
2022-08-23T15:13:20.009Z,99441.73
2022-08-23T15:15:52.607Z,99440.08
2022-08-23T15:18:20.414Z,99435.48
2022-08-23T15:20:49.010Z,99436.75
2022-08-23T15:23:20.486Z,99440.62
2022-08-23T15:25:47.713Z,99442.71
2022-08-23T15:28:18.697Z,99440.99
2022-08-23T15:30:48.736Z,99439.22
2022-08-23T15:33:16.101Z,99436.52
2022-08-23T15:35:48.992Z,99434.62
2022-08-23T15:38:21.229Z,99431.46
2022-08-23T15:40:51.026Z,99425.23
2022-08-23T15:43:20.789Z,99427.89
2022-08-23T15:45:48.884Z,99423.92
2022-08-23T15:48:22.451Z,99429.52
2022-08-23T15:50:50.108Z,99437.15
2022-08-23T15:53:21.196Z,99438.69
2022-08-23T15:55:49.133Z,99443.75
2022-08-23T15:58:22.476Z,99445.98
2022-08-23T16:00:51.455Z,99448.02
2022-08-23T16:03:21.474Z,99443.59
2022-08-23T16:05:53.213Z,99444.67
2022-08-23T16:08:41.052Z,99444.65
2022-08-23T16:11:12.368Z,99444.13
2022-08-23T16:13:43.306Z,99446.08
2022-08-23T16:16:26.466Z,99450.73
2022-08-23T16:18:55.125Z,99455.58
2022-08-23T16:21:25.010Z,99458.33
2022-08-23T16:23:55.053Z,99457.42
2022-08-23T16:26:33.514Z,99459.05
2022-08-23T16:29:07.843Z,99457.58
2022-08-23T16:31:38.729Z,99460.86
2022-08-23T16:34:14.271Z,99461.26
2022-08-23T16:36:47.248Z,99458.33
2022-08-23T16:39:16.764Z,99462.89
2022-08-23T16:41:44.527Z,99463.80
2022-08-23T16:44:12.181Z,99466.08
2022-08-23T16:46:42.313Z,99468.64
2022-08-23T16:49:12.735Z,99469.97
2022-08-23T16:51:40.993Z,99473.67
2022-08-23T16:54:09.109Z,99474.10
2022-08-23T16:56:38.582Z,99480.00
2022-08-23T16:59:09.619Z,99485.52
2022-08-23T17:01:47.631Z,99489.20
2022-08-23T17:04:17.074Z,99499.06
2022-08-23T17:06:46.025Z,99499.63
2022-08-23T17:09:13.673Z,99502.30
2022-08-23T17:11:43.489Z,99504.98
2022-08-23T17:14:12.488Z,99505.46
2022-08-23T17:16:41.847Z,99508.20
2022-08-23T17:19:11.391Z,99507.04
2022-08-23T17:21:40.014Z,99512.98
2022-08-23T17:24:07.633Z,99514.86
2022-08-23T17:26:35.737Z,99513.48
2022-08-23T17:29:04.266Z,99516.92
2022-08-23T17:31:31.661Z,99515.61
2022-08-23T17:34:02.913Z,99522.73
2022-08-23T17:36:33.930Z,99524.31
2022-08-23T17:39:05.681Z,99527.10
2022-08-23T17:41:35.246Z,99527.32
2022-08-23T17:44:05.561Z,99534.50
2022-08-23T17:46:41.737Z,99539.20
2022-08-23T17:49:10.783Z,99539.57
2022-08-23T17:51:42.840Z,99541.61
2022-08-23T17:54:16.016Z,99550.47
2022-08-23T17:56:49.936Z,99550.77
2022-08-23T17:59:19.591Z,99551.28
2022-08-23T18:01:47.312Z,99551.43
2022-08-23T18:04:14.928Z,99550.90
2022-08-23T18:06:42.633Z,99552.70
2022-08-23T18:09:10.596Z,99557.64
2022-08-23T18:11:38.598Z,99555.31
2022-08-23T18:14:06.130Z,99553.44
2022-08-23T18:16:35.795Z,99546.03
2022-08-23T18:19:07.109Z,99544.96
2022-08-23T18:21:40.290Z,99542.77
2022-08-23T18:24:08.942Z,99544.70
2022-08-23T18:26:55.153Z,99548.86
2022-08-23T18:29:23.837Z,99555.27
2022-08-23T18:31:51.511Z,99557.34
2022-08-23T18:34:19.313Z,99557.59
2022-08-23T18:36:47.043Z,99554.19
2022-08-23T18:39:15.846Z,99552.77
2022-08-23T18:41:43.201Z,99558.23
2022-08-23T18:44:11.498Z,99561.20
2022-08-23T18:46:41.879Z,99561.77
2022-08-23T18:49:11.481Z,99562.59
2022-08-23T18:51:41.021Z,99558.13
2022-08-23T18:54:09.359Z,99559.80
2022-08-23T18:56:37.028Z,99561.40
2022-08-23T18:59:06.358Z,99555.71
2022-08-23T19:01:39.298Z,99549.41
2022-08-23T19:04:09.155Z,99547.14
2022-08-23T19:06:37.372Z,99545.52
2022-08-23T19:09:06.491Z,99542.63
2022-08-23T19:11:34.664Z,99544.13
2022-08-23T19:14:01.826Z,99540.44
2022-08-23T19:16:30.699Z,99543.59
2022-08-23T19:18:58.670Z,99543.66
2022-08-23T19:21:26.956Z,99538.06
2022-08-23T19:23:56.757Z,99537.08
2022-08-23T19:26:31.422Z,99534.95
2022-08-23T19:29:00.826Z,99528.23
2022-08-23T19:31:33.837Z,99534.05
2022-08-23T19:34:03.876Z,99541.20
2022-08-23T19:36:45.729Z,99546.19
2022-08-23T19:39:14.861Z,99551.37
2022-08-23T19:41:42.242Z,99559.20
2022-08-23T19:44:10.091Z,99561.98
2022-08-23T19:46:40.843Z,99566.20
2022-08-23T19:49:11.267Z,99565.34
2022-08-23T19:51:39.377Z,99561.17
2022-08-23T19:54:11.424Z,99559.22
2022-08-23T19:56:48.251Z,99558.94
2022-08-23T19:59:25.053Z,99555.78
2022-08-23T20:01:55.102Z,99551.13
2022-08-23T20:04:24.161Z,99541.86
2022-08-23T20:06:51.727Z,99539.02
2022-08-23T20:09:21.873Z,99537.97
2022-08-23T20:11:52.301Z,99552.38
2022-08-23T20:14:21.490Z,99560.73
2022-08-23T20:16:49.979Z,99572.29
2022-08-23T20:19:17.401Z,99578.98
2022-08-23T20:21:44.971Z,99586.45
2022-08-23T20:24:14.770Z,99590.42
2022-08-23T20:26:49.670Z,99596.66
2022-08-23T20:29:21.703Z,99590.48
2022-08-23T20:31:59.825Z,99588.00
2022-08-23T20:34:30.233Z,99581.46
2022-08-23T20:36:58.130Z,99579.75
2022-08-23T20:39:25.739Z,99586.65
2022-08-23T20:41:54.422Z,99584.63
2022-08-23T20:44:25.418Z,99578.73
2022-08-23T20:46:54.886Z,99571.23
2022-08-23T20:49:25.794Z,99572.58
2022-08-23T20:51:53.970Z,99579.83
2022-08-23T20:54:21.638Z,99584.06
2022-08-23T20:56:51.414Z,99595.07
2022-08-23T20:59:19.304Z,99609.30
2022-08-23T21:01:48.184Z,99613.30
2022-08-23T21:04:16.893Z,99616.67
2022-08-23T21:06:51.813Z,99618.48
2022-08-23T21:09:24.688Z,99616.75
2022-08-23T21:11:57.377Z,99621.77
2022-08-23T21:14:25.146Z,99625.44
2022-08-23T21:16:52.301Z,99627.05
2022-08-23T21:19:20.433Z,99627.96
2022-08-23T21:21:48.532Z,99628.73
2022-08-23T21:24:15.796Z,99632.02
2022-08-23T21:26:43.153Z,99637.81
2022-08-23T21:29:10.808Z,99646.85
2022-08-23T21:31:39.359Z,99649.17
2022-08-23T21:34:07.979Z,99648.70
2022-08-23T21:36:36.159Z,99654.98
2022-08-23T21:39:04.836Z,99669.11
2022-08-23T21:41:43.028Z,99677.85
2022-08-23T21:44:18.280Z,99681.41
2022-08-23T21:46:47.366Z,99682.45
2022-08-23T21:49:15.723Z,99686.10
2022-08-23T21:51:44.484Z,99683.11
2022-08-23T21:54:13.639Z,99687.42
2022-08-23T21:56:42.008Z,99689.14
2022-08-23T21:59:14.077Z,99688.06
2022-08-23T22:01:42.521Z,99682.67
2022-08-23T22:04:12.714Z,99677.10
2022-08-23T22:06:42.907Z,99669.34
2022-08-23T22:09:15.270Z,99671.28
2022-08-23T22:11:44.478Z,99671.02
2022-08-23T22:14:17.150Z,99669.48
2022-08-23T22:16:44.305Z,99669.68
2022-08-23T22:19:14.938Z,99671.33
2022-08-23T22:21:45.830Z,99676.60
2022-08-23T22:24:13.686Z,99684.27
2022-08-23T22:26:42.359Z,99695.70
2022-08-23T22:29:11.144Z,99701.19
2022-08-23T22:31:39.322Z,99704.89
2022-08-23T22:34:09.399Z,99716.26
2022-08-23T22:36:36.760Z,99718.11
2022-08-23T22:39:04.821Z,99723.28
2022-08-23T22:41:32.691Z,99718.20
2022-08-23T22:44:02.278Z,99711.33
2022-08-23T22:46:33.206Z,99711.20
2022-08-23T22:49:01.211Z,99717.98
2022-08-23T22:51:32.254Z,99725.14
2022-08-23T22:54:07.490Z,99731.63
2022-08-23T22:56:44.183Z,99736.60
2022-08-23T22:59:12.474Z,99739.84
2022-08-23T23:01:44.487Z,99740.80
2022-08-23T23:04:13.713Z,99743.56
2022-08-23T23:06:41.760Z,99745.09
2022-08-23T23:09:10.973Z,99757.32
2022-08-23T23:11:40.325Z,99763.73
2022-08-23T23:14:10.911Z,99768.05
2022-08-23T23:16:38.955Z,99769.59
2022-08-23T23:19:24.966Z,99776.52
2022-08-23T23:21:55.519Z,99779.20
2022-08-23T23:24:33.589Z,99785.34
2022-08-23T23:27:01.971Z,99788.86
2022-08-23T23:29:31.722Z,99785.98
2022-08-23T23:31:59.137Z,99785.70
2022-08-23T23:34:27.870Z,99780.17
2022-08-23T23:36:59.488Z,99784.30
2022-08-23T23:39:27.647Z,99788.65
2022-08-23T23:41:55.709Z,99794.08
2022-08-23T23:44:29.891Z,99798.46
2022-08-23T23:47:01.638Z,99803.67
2022-08-23T23:49:33.008Z,99808.73
2022-08-23T23:52:04.508Z,99814.55
2022-08-23T23:54:33.493Z,99824.88
2022-08-23T23:57:01.798Z,99835.31
2022-08-23T23:59:29.224Z,99836.36
